Hovedside
METAR-TAF:

METAR-TAF

Lufthavner :

Esbjerg lufthavn

Esbjerg, Danmark

breddegrad: 55-32N, lengdegrad: 008-34E, høyde over havet: 30 m

Gjeldene værobservasjon

Denne rapporten ble laget for 8 minutter siden, klokken 17:20 UTC
Vind 10 kt fra Øst-sørøst
Temperatur 23°C
Luftfuktighet 44%
Trykk 1025 hPa
Sikt 10 km eller mer

METAR: EKEB 261720Z AUTO 11010KT 9999NDV NCD 23/10 Q1025

Tid: 19:28 (17:28 UTC)


TAF: fraværende

Værobservasjoner og værvarsel for over 4000 flyplasser (METAR- og TAF-rapporter).

Tilgjengelige stasjoner er representert av de røde og gule prikkene på kartet.

Hold musepekeren over prikken for å se navnet på stasjonen.

Klikk så for å se værobservasjoner og -varsler.

For å forandre kartet kan du klikke på den grønne knappen med svart kryss for å zoome inn, på den grønne knappen med strek for å zoome ut, eller på de grønne pilene for å se tilstøtende kart.


METAR-TAF: